ADDS METAR Data INFO
IDs: Format: Raw Decoded Include TAF

Data at: 2343 UTC 15 Dec 2017

METAR for:KSPB (Scappoose Ind Airpar, OR, US)
Text:KSPB 152253Z AUTO 00000KT 6SM -RA BR OVC018 03/01 A3027 RMK AO2 RAB32 SLP251 P0000 T00280011
Temperature: 2.8°C ( 37°F)
Dewpoint: 1.1°C ( 34°F) [RH = 89%]
Pressure (altimeter):30.27 inches Hg (1025.1 mb) [Sea level pressure: 1025.1 mb]
Winds:calm
Visibility: 6 sm ( 10 km)
Ceiling:1800 feet AGL
Clouds: overcast cloud deck at 1800 feet AGL
Weather:-RA BR (light rain, mist)
QC Flag:automated observation with no human augmentation